sensor_id;sensor_type;location;lat;lon;timestamp;pressure;altitude;pressure_sealevel;temperature;humidity
28344;BME280;15597;50.914;6.638;2022-10-01T00:00:49;99938.63;;;16.48;48.11
28344;BME280;15597;50.914;6.638;2022-10-01T00:03:16;99945.69;;;16.47;48.11
28344;BME280;15597;50.914;6.638;2022-10-01T00:05:42;99948.16;;;16.50;48.18
28344;BME280;15597;50.914;6.638;2022-10-01T00:08:08;99947.22;;;16.52;48.15
28344;BME280;15597;50.914;6.638;2022-10-01T00:10:34;99945.50;;;16.50;48.16
28344;BME280;15597;50.914;6.638;2022-10-01T00:13:01;99945.50;;;16.50;48.08
28344;BME280;15597;50.914;6.638;2022-10-01T00:15:26;99939.38;;;16.50;48.14
28344;BME280;15597;50.914;6.638;2022-10-01T00:17:52;99930.53;;;16.51;48.19
28344;BME280;15597;50.914;6.638;2022-10-01T00:20:18;99933.94;;;16.53;48.38
28344;BME280;15597;50.914;6.638;2022-10-01T00:22:44;99932.06;;;16.55;48.15
28344;BME280;15597;50.914;6.638;2022-10-01T00:25:11;99927.53;;;16.57;48.55
28344;BME280;15597;50.914;6.638;2022-10-01T00:27:37;99919.50;;;16.59;48.31
28344;BME280;15597;50.914;6.638;2022-10-01T00:30:05;99908.00;;;16.60;48.36
28344;BME280;15597;50.914;6.638;2022-10-01T00:32:31;99906.31;;;16.59;48.51
28344;BME280;15597;50.914;6.638;2022-10-01T00:34:59;99902.91;;;16.57;48.30
28344;BME280;15597;50.914;6.638;2022-10-01T00:37:25;99894.03;;;16.58;48.56
28344;BME280;15597;50.914;6.638;2022-10-01T00:39:51;99895.75;;;16.59;48.58
28344;BME280;15597;50.914;6.638;2022-10-01T00:42:22;99880.94;;;16.56;48.69
28344;BME280;15597;50.914;6.638;2022-10-01T00:44:49;99880.06;;;16.56;48.89
28344;BME280;15597;50.914;6.638;2022-10-01T00:47:44;99861.94;;;16.49;48.88
28344;BME280;15597;50.914;6.638;2022-10-01T00:52:43;99844.31;;;16.50;49.01
28344;BME280;15597;50.914;6.638;2022-10-01T00:55:12;99834.59;;;16.50;48.88
28344;BME280;15597;50.914;6.638;2022-10-01T00:57:39;99824.91;;;16.51;49.09
28344;BME280;15597;50.914;6.638;2022-10-01T01:00:07;99817.06;;;16.49;49.04
28344;BME280;15597;50.914;6.638;2022-10-01T01:02:33;99816.28;;;16.47;49.24
28344;BME280;15597;50.914;6.638;2022-10-01T01:04:59;99819.88;;;16.46;49.24
28344;BME280;15597;50.914;6.638;2022-10-01T01:07:26;99824.41;;;16.44;49.16
28344;BME280;15597;50.914;6.638;2022-10-01T01:09:52;99825.28;;;16.29;49.81
28344;BME280;15597;50.914;6.638;2022-10-01T01:23:00;99795.31;;;16.30;50.20
28344;BME280;15597;50.914;6.638;2022-10-01T01:25:40;99792.91;;;16.25;50.21
28344;BME280;15597;50.914;6.638;2022-10-01T01:28:26;99785.09;;;16.24;50.34
28344;BME280;15597;50.914;6.638;2022-10-01T01:31:00;99779.84;;;16.24;50.35
28344;BME280;15597;50.914;6.638;2022-10-01T01:33:28;99770.97;;;16.25;50.41
28344;BME280;15597;50.914;6.638;2022-10-01T01:36:06;99761.44;;;16.22;50.60
28344;BME280;15597;50.914;6.638;2022-10-01T01:38:41;99749.34;;;16.18;50.73
28344;BME280;15597;50.914;6.638;2022-10-01T01:41:10;99744.94;;;16.18;50.95
28344;BME280;15597;50.914;6.638;2022-10-01T01:43:39;99736.25;;;16.16;50.89
28344;BME280;15597;50.914;6.638;2022-10-01T01:46:08;99718.72;;;16.15;50.89
28344;BME280;15597;50.914;6.638;2022-10-01T01:48:35;99703.78;;;16.00;51.35
28344;BME280;15597;50.914;6.638;2022-10-01T01:51:11;99705.69;;;15.98;51.48
28344;BME280;15597;50.914;6.638;2022-10-01T01:53:39;99696.63;;;16.02;51.63
28344;BME280;15597;50.914;6.638;2022-10-01T01:56:06;99684.22;;;16.04;51.46
28344;BME280;15597;50.914;6.638;2022-10-01T01:58:33;99672.72;;;16.05;51.84
28344;BME280;15597;50.914;6.638;2022-10-01T02:00:59;99664.69;;;16.06;51.73
28344;BME280;15597;50.914;6.638;2022-10-01T02:03:26;99660.34;;;16.05;51.86
28344;BME280;15597;50.914;6.638;2022-10-01T02:09:04;99647.22;;;15.89;52.13
28344;BME280;15597;50.914;6.638;2022-10-01T02:11:44;99649.78;;;15.91;52.12
28344;BME280;15597;50.914;6.638;2022-10-01T02:14:46;99645.25;;;15.93;52.26
28344;BME280;15597;50.914;6.638;2022-10-01T02:17:19;99645.25;;;15.93;52.51
28344;BME280;15597;50.914;6.638;2022-10-01T02:19:59;99640.84;;;15.94;52.41
28344;BME280;15597;50.914;6.638;2022-10-01T02:22:45;99636.50;;;15.93;52.34
28344;BME280;15597;50.914;6.638;2022-10-01T02:25:16;99636.41;;;15.94;52.38
28344;BME280;15597;50.914;6.638;2022-10-01T02:27:56;99640.84;;;15.94;52.22
28344;BME280;15597;50.914;6.638;2022-10-01T02:30:29;99640.47;;;16.00;52.07
28344;BME280;15597;50.914;6.638;2022-10-01T02:32:57;99639.53;;;16.01;52.52
28344;BME280;15597;50.914;6.638;2022-10-01T02:35:26;99653.31;;;16.06;52.36
28344;BME280;15597;50.914;6.638;2022-10-01T02:37:55;99661.03;;;16.09;52.18
28344;BME280;15597;50.914;6.638;2022-10-01T02:40:26;99675.00;;;16.11;52.02
28344;BME280;15597;50.914;6.638;2022-10-01T02:43:01;99691.00;;;16.08;52.30
28344;BME280;15597;50.914;6.638;2022-10-01T02:45:31;99683.66;;;16.13;52.44
28344;BME280;15597;50.914;6.638;2022-10-01T02:48:09;99652.19;;;16.10;52.18
28344;BME280;15597;50.914;6.638;2022-10-01T02:50:43;99646.72;;;16.13;51.97
28344;BME280;15597;50.914;6.638;2022-10-01T02:53:21;99638.69;;;16.15;51.94
28344;BME280;15597;50.914;6.638;2022-10-01T02:55:48;99629.66;;;16.19;51.77
28344;BME280;15597;50.914;6.638;2022-10-01T02:58:17;99630.31;;;16.23;51.82
28344;BME280;15597;50.914;6.638;2022-10-01T03:00:43;99624.09;;;16.24;51.82
28344;BME280;15597;50.914;6.638;2022-10-01T03:03:08;99622.41;;;16.23;51.77
28344;BME280;15597;50.914;6.638;2022-10-01T03:05:34;99606.56;;;16.23;51.99
28344;BME280;15597;50.914;6.638;2022-10-01T03:08:00;99618.81;;;16.24;52.36
28344;BME280;15597;50.914;6.638;2022-10-01T03:10:26;99621.47;;;16.24;52.35
28344;BME280;15597;50.914;6.638;2022-10-01T03:12:51;99630.13;;;16.26;52.34
28344;BME280;15597;50.914;6.638;2022-10-01T03:15:18;99610.53;;;16.30;52.18
28344;BME280;15597;50.914;6.638;2022-10-01T03:17:45;99619.22;;;16.32;52.02
28344;BME280;15597;50.914;6.638;2022-10-01T03:20:11;99622.59;;;16.34;51.84
28344;BME280;15597;50.914;6.638;2022-10-01T03:22:37;99601.66;;;16.31;52.01
28344;BME280;15597;50.914;6.638;2022-10-01T03:25:03;99585.16;;;16.27;52.21
28344;BME280;15597;50.914;6.638;2022-10-01T03:27:29;99579.25;;;16.24;52.13
28344;BME280;15597;50.914;6.638;2022-10-01T03:29:55;99567.16;;;16.19;52.26
28344;BME280;15597;50.914;6.638;2022-10-01T03:32:20;99577.91;;;16.16;52.28
28344;BME280;15597;50.914;6.638;2022-10-01T03:34:46;99586.84;;;16.14;52.40
28344;BME280;15597;50.914;6.638;2022-10-01T03:37:12;99577.25;;;16.13;52.60
28344;BME280;15597;50.914;6.638;2022-10-01T03:39:37;99579.22;;;16.09;52.90
28344;BME280;15597;50.914;6.638;2022-10-01T03:42:03;99571.69;;;16.03;53.37
28344;BME280;15597;50.914;6.638;2022-10-01T03:44:30;99569.31;;;15.98;53.63
28344;BME280;15597;50.914;6.638;2022-10-01T03:46:56;99568.75;;;15.93;54.04
28344;BME280;15597;50.914;6.638;2022-10-01T03:49:22;99565.44;;;15.89;54.00
28344;BME280;15597;50.914;6.638;2022-10-01T03:51:47;99554.13;;;15.87;54.11
28344;BME280;15597;50.914;6.638;2022-10-01T03:54:13;99554.28;;;15.84;54.25
28344;BME280;15597;50.914;6.638;2022-10-01T03:56:38;99544.84;;;15.80;54.44
28344;BME280;15597;50.914;6.638;2022-10-01T03:59:08;99529.13;;;15.78;54.48
28344;BME280;15597;50.914;6.638;2022-10-01T04:01:35;99528.28;;;15.78;54.38
28344;BME280;15597;50.914;6.638;2022-10-01T04:04:00;99522.06;;;15.79;54.41
28344;BME280;15597;50.914;6.638;2022-10-01T04:06:26;99550.22;;;15.78;54.65
28344;BME280;15597;50.914;6.638;2022-10-01T04:08:51;99548.53;;;15.77;54.91
28344;BME280;15597;50.914;6.638;2022-10-01T04:11:17;99534.50;;;15.77;54.83
28344;BME280;15597;50.914;6.638;2022-10-01T04:13:42;99497.56;;;15.77;55.15
28344;BME280;15597;50.914;6.638;2022-10-01T04:16:08;99458.94;;;15.76;54.87
28344;BME280;15597;50.914;6.638;2022-10-01T04:18:34;99419.50;;;15.74;55.30
28344;BME280;15597;50.914;6.638;2022-10-01T04:21:01;99373.06;;;15.72;55.40
28344;BME280;15597;50.914;6.638;2022-10-01T04:23:26;99309.75;;;15.72;55.53
28344;BME280;15597;50.914;6.638;2022-10-01T04:25:52;99328.41;;;15.69;55.61
28344;BME280;15597;50.914;6.638;2022-10-01T04:28:18;99253.09;;;15.65;56.35
28344;BME280;15597;50.914;6.638;2022-10-01T04:30:44;99372.13;;;15.58;56.71
28344;BME280;15597;50.914;6.638;2022-10-01T04:33:13;99383.72;;;15.56;56.65
28344;BME280;15597;50.914;6.638;2022-10-01T04:35:40;99421.66;;;15.53;56.81
28344;BME280;15597;50.914;6.638;2022-10-01T04:38:09;99446.31;;;15.52;56.76
28344;BME280;15597;50.914;6.638;2022-10-01T04:40:37;99479.66;;;15.53;57.42
28344;BME280;15597;50.914;6.638;2022-10-01T04:43:04;99507.63;;;15.56;56.91
28344;BME280;15597;50.914;6.638;2022-10-01T04:45:30;99483.03;;;15.55;56.99
28344;BME280;15597;50.914;6.638;2022-10-01T04:47:56;99506.59;;;15.58;56.94
28344;BME280;15597;50.914;6.638;2022-10-01T04:50:24;99499.34;;;15.62;56.76
28344;BME280;15597;50.914;6.638;2022-10-01T04:52:51;99497.56;;;15.62;56.83
28344;BME280;15597;50.914;6.638;2022-10-01T04:55:18;99506.22;;;15.65;56.74
28344;BME280;15597;50.914;6.638;2022-10-01T04:57:43;99510.56;;;15.66;56.62
28344;BME280;15597;50.914;6.638;2022-10-01T05:00:12;99506.97;;;15.67;56.68
28344;BME280;15597;50.914;6.638;2022-10-01T05:02:37;99508.66;;;15.68;56.68
28344;BME280;15597;50.914;6.638;2022-10-01T05:05:05;99509.25;;;15.73;56.46
28344;BME280;15597;50.914;6.638;2022-10-01T05:07:32;99510.00;;;15.75;56.46
28344;BME280;15597;50.914;6.638;2022-10-01T05:09:58;99511.63;;;15.77;56.46
28344;BME280;15597;50.914;6.638;2022-10-01T05:12:26;99516.78;;;15.79;56.16
28344;BME280;15597;50.914;6.638;2022-10-01T05:14:52;99510.50;;;15.82;56.15
28344;BME280;15597;50.914;6.638;2022-10-01T05:17:18;99507.94;;;15.80;56.36
28344;BME280;15597;50.914;6.638;2022-10-01T05:19:45;99520.28;;;15.80;56.30
28344;BME280;15597;50.914;6.638;2022-10-01T05:22:10;99520.16;;;15.81;56.32
28344;BME280;15597;50.914;6.638;2022-10-01T05:24:37;99525.25;;;15.84;56.20
28344;BME280;15597;50.914;6.638;2022-10-01T05:27:03;99514.72;;;15.84;56.12
28344;BME280;15597;50.914;6.638;2022-10-01T05:29:28;99519.84;;;15.87;55.97
28344;BME280;15597;50.914;6.638;2022-10-01T05:31:55;99524.09;;;15.90;55.86
28344;BME280;15597;50.914;6.638;2022-10-01T05:34:20;99527.47;;;15.92;55.82
28344;BME280;15597;50.914;6.638;2022-10-01T05:36:46;99524.56;;;15.97;55.72
28344;BME280;15597;50.914;6.638;2022-10-01T05:39:11;99534.94;;;16.00;55.57
28344;BME280;15597;50.914;6.638;2022-10-01T05:41:37;99542.75;;;16.01;55.64
28344;BME280;15597;50.914;6.638;2022-10-01T05:44:06;99549.63;;;16.04;55.67
28344;BME280;15597;50.914;6.638;2022-10-01T05:46:32;99552.84;;;16.09;55.40
28344;BME280;15597;50.914;6.638;2022-10-01T05:48:57;99553.59;;;16.11;55.49
28344;BME280;15597;50.914;6.638;2022-10-01T05:51:23;99555.09;;;16.15;55.41
28344;BME280;15597;50.914;6.638;2022-10-01T05:53:52;99562.84;;;16.18;55.23
28344;BME280;15597;50.914;6.638;2022-10-01T05:56:18;99570.38;;;16.25;55.43
28344;BME280;15597;50.914;6.638;2022-10-01T05:58:43;99575.28;;;16.31;55.60
28344;BME280;15597;50.914;6.638;2022-10-01T06:01:11;99570.56;;;16.36;55.02
28344;BME280;15597;50.914;6.638;2022-10-01T06:03:37;99579.97;;;16.40;54.83
28344;BME280;15597;50.914;6.638;2022-10-01T06:06:04;99567.53;;;16.42;54.97
28344;BME280;15597;50.914;6.638;2022-10-01T06:08:33;99570.19;;;16.42;54.97
28344;BME280;15597;50.914;6.638;2022-10-01T06:11:00;99569.22;;;16.43;54.74
28344;BME280;15597;50.914;6.638;2022-10-01T06:13:26;99572.06;;;16.40;54.94
28344;BME280;15597;50.914;6.638;2022-10-01T06:15:52;99573.00;;;16.39;54.84
28344;BME280;15597;50.914;6.638;2022-10-01T06:18:18;99580.16;;;16.37;54.85
28344;BME280;15597;50.914;6.638;2022-10-01T06:20:44;99580.16;;;16.37;55.38
28344;BME280;15597;50.914;6.638;2022-10-01T06:23:11;99587.34;;;16.35;55.06
28344;BME280;15597;50.914;6.638;2022-10-01T06:25:39;99589.03;;;16.36;55.04
28344;BME280;15597;50.914;6.638;2022-10-01T06:28:07;99592.44;;;16.38;55.20
28344;BME280;15597;50.914;6.638;2022-10-01T06:30:34;99588.72;;;16.41;55.12
28344;BME280;15597;50.914;6.638;2022-10-01T06:33:03;99591.28;;;16.42;55.41
28344;BME280;15597;50.914;6.638;2022-10-01T06:35:30;99590.16;;;16.46;55.79
28344;BME280;15597;50.914;6.638;2022-10-01T06:37:57;99600.72;;;16.46;55.21
28344;BME280;15597;50.914;6.638;2022-10-01T06:40:23;99600.72;;;16.46;55.48
28344;BME280;15597;50.914;6.638;2022-10-01T06:42:49;99599.03;;;16.45;55.22
28344;BME280;15597;50.914;6.638;2022-10-01T06:45:16;99597.13;;;16.47;55.47
28344;BME280;15597;50.914;6.638;2022-10-01T06:47:43;99591.84;;;16.47;55.38
28344;BME280;15597;50.914;6.638;2022-10-01T06:50:09;99604.03;;;16.50;54.98
28344;BME280;15597;50.914;6.638;2022-10-01T06:52:38;99605.81;;;16.49;54.89
28344;BME280;15597;50.914;6.638;2022-10-01T06:55:14;99598.75;;;16.50;55.14
28344;BME280;15597;50.914;6.638;2022-10-01T06:57:40;99606.69;;;16.50;54.89
28344;BME280;15597;50.914;6.638;2022-10-01T07:00:06;99596.94;;;16.50;54.70
28344;BME280;15597;50.914;6.638;2022-10-01T07:02:31;99603.09;;;16.51;54.77
28344;BME280;15597;50.914;6.638;2022-10-01T07:04:57;99598.63;;;16.52;54.80
28344;BME280;15597;50.914;6.638;2022-10-01T07:07:31;99603.91;;;16.52;55.51
28344;BME280;15597;50.914;6.638;2022-10-01T07:09:57;99605.16;;;16.60;55.62
28344;BME280;15597;50.914;6.638;2022-10-01T07:12:24;99604.84;;;16.65;55.22
28344;BME280;15597;50.914;6.638;2022-10-01T07:14:49;99607.22;;;16.70;55.21
28344;BME280;15597;50.914;6.638;2022-10-01T07:17:15;99607.22;;;16.70;54.98
28344;BME280;15597;50.914;6.638;2022-10-01T07:19:41;99603.72;;;16.69;54.47
28344;BME280;15597;50.914;6.638;2022-10-01T07:22:07;99613.34;;;16.70;55.26
28344;BME280;15597;50.914;6.638;2022-10-01T07:24:33;99612.31;;;16.73;54.78
28344;BME280;15597;50.914;6.638;2022-10-01T07:26:58;99612.19;;;16.74;54.99
28344;BME280;15597;50.914;6.638;2022-10-01T07:29:24;99612.94;;;16.76;55.40
28344;BME280;15597;50.914;6.638;2022-10-01T07:31:55;99619.94;;;16.77;55.16
28344;BME280;15597;50.914;6.638;2022-10-01T07:34:22;99617.09;;;16.80;55.07
28344;BME280;15597;50.914;6.638;2022-10-01T07:36:49;99623.13;;;16.83;55.12
28344;BME280;15597;50.914;6.638;2022-10-01T07:39:15;99633.63;;;16.84;55.11
28344;BME280;15597;50.914;6.638;2022-10-01T07:41:41;99631.81;;;16.85;55.21
28344;BME280;15597;50.914;6.638;2022-10-01T07:44:08;99626.50;;;16.85;55.08
28344;BME280;15597;50.914;6.638;2022-10-01T07:46:39;99635.38;;;16.84;55.66
28344;BME280;15597;50.914;6.638;2022-10-01T07:49:04;99638.97;;;16.83;55.13
28344;BME280;15597;50.914;6.638;2022-10-01T07:51:30;99642.56;;;16.82;56.25
28344;BME280;15597;50.914;6.638;2022-10-01T07:53:56;99633.69;;;16.83;56.27
28344;BME280;15597;50.914;6.638;2022-10-01T07:56:24;99640.47;;;16.87;55.88
28344;BME280;15597;50.914;6.638;2022-10-01T07:58:57;99644.25;;;16.83;56.13
28344;BME280;15597;50.914;6.638;2022-10-01T08:01:23;99638.78;;;16.86;55.84
28344;BME280;15597;50.914;6.638;2022-10-01T08:03:50;99632.66;;;16.85;56.48
28344;BME280;15597;50.914;6.638;2022-10-01T08:06:17;99640.59;;;16.85;56.20
28344;BME280;15597;50.914;6.638;2022-10-01T08:08:43;99644.81;;;16.88;56.31
28344;BME280;15597;50.914;6.638;2022-10-01T08:11:09;99658.03;;;16.88;56.20
28344;BME280;15597;50.914;6.638;2022-10-01T08:13:38;99653.69;;;16.87;56.07
28344;BME280;15597;50.914;6.638;2022-10-01T08:16:04;99644.06;;;16.86;55.69
28344;BME280;15597;50.914;6.638;2022-10-01T08:18:31;99659.91;;;16.86;55.71
28344;BME280;15597;50.914;6.638;2022-10-01T08:21:00;99659.91;;;16.86;56.00
28344;BME280;15597;50.914;6.638;2022-10-01T08:23:27;99668.41;;;16.91;56.37
28344;BME280;15597;50.914;6.638;2022-10-01T08:25:58;99657.84;;;16.91;56.54
28344;BME280;15597;50.914;6.638;2022-10-01T08:28:25;99668.97;;;16.96;56.40
28344;BME280;15597;50.914;6.638;2022-10-01T08:30:50;99669.78;;;16.98;56.47
28344;BME280;15597;50.914;6.638;2022-10-01T08:33:16;99666.94;;;17.01;56.56
28344;BME280;15597;50.914;6.638;2022-10-01T08:35:42;99671.09;;;17.05;57.03
28344;BME280;15597;50.914;6.638;2022-10-01T08:38:08;99665.59;;;17.08;57.52
28344;BME280;15597;50.914;6.638;2022-10-01T08:40:39;99673.41;;;17.10;57.61
28344;BME280;15597;50.914;6.638;2022-10-01T08:43:11;99670.69;;;17.12;58.23
28344;BME280;15597;50.914;6.638;2022-10-01T08:45:47;99672.19;;;17.16;57.88
28344;BME280;15597;50.914;6.638;2022-10-01T08:48:51;99679.19;;;17.17;58.01
28344;BME280;15597;50.914;6.638;2022-10-01T08:51:30;99681.50;;;17.21;57.86
28344;BME280;15597;50.914;6.638;2022-10-01T08:54:22;99698.22;;;17.22;57.85
28344;BME280;15597;50.914;6.638;2022-10-01T08:56:52;99700.38;;;17.30;58.21
28344;BME280;15597;50.914;6.638;2022-10-01T08:59:35;99701.25;;;17.30;58.47
28344;BME280;15597;50.914;6.638;2022-10-01T09:02:16;99711.63;;;17.33;58.56
28344;BME280;15597;50.914;6.638;2022-10-01T09:04:43;99709.53;;;17.38;58.47
28344;BME280;15597;50.914;6.638;2022-10-01T09:09:53;99714.91;;;17.37;58.72
28344;BME280;15597;50.914;6.638;2022-10-01T09:12:33;99720.94;;;17.39;58.93
28344;BME280;15597;50.914;6.638;2022-10-01T09:20:34;99738.78;;;17.50;59.08
28344;BME280;15597;50.914;6.638;2022-10-01T09:23:27;99738.78;;;17.50;58.99
28344;BME280;15597;50.914;6.638;2022-10-01T09:25:54;99739.13;;;17.58;58.91
28344;BME280;15597;50.914;6.638;2022-10-01T09:28:28;99744.34;;;17.60;58.76
28344;BME280;15597;50.914;6.638;2022-10-01T09:33:40;99743.81;;;17.67;59.16
28344;BME280;15597;50.914;6.638;2022-10-01T09:38:39;99747.75;;;17.75;59.26
28344;BME280;15597;50.914;6.638;2022-10-01T09:41:07;99741.22;;;17.80;59.56
28344;BME280;15597;50.914;6.638;2022-10-01T09:43:36;99745.25;;;17.86;59.19
28344;BME280;15597;50.914;6.638;2022-10-01T09:46:04;99750.25;;;17.91;59.15
28344;BME280;15597;50.914;6.638;2022-10-01T09:54:10;99746.75;;;17.90;59.69
28344;BME280;15597;50.914;6.638;2022-10-01T09:56:47;99739.84;;;18.02;59.76
28344;BME280;15597;50.914;6.638;2022-10-01T09:59:26;99754.47;;;18.08;59.28
28344;BME280;15597;50.914;6.638;2022-10-01T10:01:56;99758.31;;;18.17;58.67
28344;BME280;15597;50.914;6.638;2022-10-01T10:04:23;99747.31;;;18.23;59.09
28344;BME280;15597;50.914;6.638;2022-10-01T10:06:50;99751.56;;;18.25;58.72
28344;BME280;15597;50.914;6.638;2022-10-01T10:09:19;99750.41;;;18.30;58.50
28344;BME280;15597;50.914;6.638;2022-10-01T10:11:50;99751.16;;;18.32;58.07
28344;BME280;15597;50.914;6.638;2022-10-01T10:14:17;99755.28;;;18.36;58.45
28344;BME280;15597;50.914;6.638;2022-10-01T10:16:47;99755.59;;;18.44;58.37
28344;BME280;15597;50.914;6.638;2022-10-01T10:19:27;99758.59;;;18.52;58.56
28344;BME280;15597;50.914;6.638;2022-10-01T10:21:56;99752.34;;;18.66;58.19
28344;BME280;15597;50.914;6.638;2022-10-01T10:24:30;99760.50;;;18.76;58.27
28344;BME280;15597;50.914;6.638;2022-10-01T10:26:57;99758.16;;;18.84;58.12
28344;BME280;15597;50.914;6.638;2022-10-01T10:29:34;99762.41;;;18.87;57.85
28344;BME280;15597;50.914;6.638;2022-10-01T10:32:03;99768.78;;;18.97;57.74
28344;BME280;15597;50.914;6.638;2022-10-01T10:34:38;99766.75;;;19.01;57.23
28344;BME280;15597;50.914;6.638;2022-10-01T10:37:14;99776.41;;;19.02;56.75
28344;BME280;15597;50.914;6.638;2022-10-01T10:39:44;99779.59;;;19.07;56.66
28344;BME280;15597;50.914;6.638;2022-10-01T10:42:15;99782.34;;;19.06;56.42
28344;BME280;15597;50.914;6.638;2022-10-01T10:44:42;99784.69;;;19.10;56.40
28344;BME280;15597;50.914;6.638;2022-10-01T10:47:11;99794.34;;;19.11;56.07
28344;BME280;15597;50.914;6.638;2022-10-01T10:49:47;99793.63;;;19.09;56.07
28344;BME280;15597;50.914;6.638;2022-10-01T10:52:29;99787.66;;;19.06;55.51
28344;BME280;15597;50.914;6.638;2022-10-01T10:54:58;99790.19;;;19.07;55.08
28344;BME280;15597;50.914;6.638;2022-10-01T10:57:25;99797.69;;;18.88;56.04
28344;BME280;15597;50.914;6.638;2022-10-01T11:02:26;99808.63;;;18.96;55.25
28344;BME280;15597;50.914;6.638;2022-10-01T11:04:54;99805.97;;;18.96;55.15
28344;BME280;15597;50.914;6.638;2022-10-01T11:07:24;99793.41;;;19.00;55.36
28344;BME280;15597;50.914;6.638;2022-10-01T11:15:50;99822.34;;;19.16;55.31
28344;BME280;15597;50.914;6.638;2022-10-01T11:24:33;99817.31;;;19.37;54.54
28344;BME280;15597;50.914;6.638;2022-10-01T11:26:53;99816.03;;;19.42;54.11
28344;BME280;15597;50.914;6.638;2022-10-01T11:29:32;99826.44;;;19.46;54.05
28344;BME280;15597;50.914;6.638;2022-10-01T11:35:20;99833.44;;;19.47;53.65
28344;BME280;15597;50.914;6.638;2022-10-01T11:40:37;99832.19;;;19.39;54.01
28344;BME280;15597;50.914;6.638;2022-10-01T11:45:44;99842.22;;;19.47;54.26
28344;BME280;15597;50.914;6.638;2022-10-01T11:48:32;99836.84;;;19.49;54.74
28344;BME280;15597;50.914;6.638;2022-10-01T11:51:15;99839.06;;;19.55;54.06
28344;BME280;15597;50.914;6.638;2022-10-01T11:53:53;99841.25;;;19.61;54.34
28344;BME280;15597;50.914;6.638;2022-10-01T11:56:28;99859.91;;;19.73;53.79
28344;BME280;15597;50.914;6.638;2022-10-01T11:59:32;99859.69;;;19.76;53.55
28344;BME280;15597;50.914;6.638;2022-10-01T12:02:24;99866.91;;;19.74;53.30
28344;BME280;15597;50.914;6.638;2022-10-01T12:05:12;99861.31;;;19.65;53.17
28344;BME280;15597;50.914;6.638;2022-10-01T12:07:49;99860.34;;;19.66;53.81
28344;BME280;15597;50.914;6.638;2022-10-01T12:10:26;99867.16;;;19.70;53.79
28344;BME280;15597;50.914;6.638;2022-10-01T12:15:48;99867.38;;;19.54;53.12
28344;BME280;15597;50.914;6.638;2022-10-01T12:18:22;99865.50;;;19.44;52.80
28344;BME280;15597;50.914;6.638;2022-10-01T12:20:52;99872.94;;;19.38;52.34
28344;BME280;15597;50.914;6.638;2022-10-01T12:23:22;99876.97;;;19.31;52.71
28344;BME280;15597;50.914;6.638;2022-10-01T12:26:15;99889.91;;;19.23;53.11
28344;BME280;15597;50.914;6.638;2022-10-01T12:29:05;99885.66;;;19.20;53.69
28344;BME280;15597;50.914;6.638;2022-10-01T12:31:47;99885.66;;;19.33;53.99
28344;BME280;15597;50.914;6.638;2022-10-01T12:45:55;99894.25;;;19.50;53.40
28344;BME280;15597;50.914;6.638;2022-10-01T12:48:42;99894.56;;;19.58;53.30
28344;BME280;15597;50.914;6.638;2022-10-01T12:56:31;99906.44;;;19.65;53.19
28344;BME280;15597;50.914;6.638;2022-10-01T13:15:25;99927.78;;;19.38;57.58
28344;BME280;15597;50.914;6.638;2022-10-01T13:18:05;99933.41;;;19.33;58.28
28344;BME280;15597;50.914;6.638;2022-10-01T13:20:39;99924.72;;;19.31;58.23
28344;BME280;15597;50.914;6.638;2022-10-01T13:28:45;99939.97;;;19.15;58.25
28344;BME280;15597;50.914;6.638;2022-10-01T13:31:15;99948.88;;;19.26;58.32
28344;BME280;15597;50.914;6.638;2022-10-01T13:33:53;99955.88;;;19.27;58.03
28344;BME280;15597;50.914;6.638;2022-10-01T13:36:31;99944.84;;;19.34;57.78
28344;BME280;15597;50.914;6.638;2022-10-01T13:38:58;99954.00;;;19.42;57.51
28344;BME280;15597;50.914;6.638;2022-10-01T13:41:31;99963.66;;;19.44;56.88
28344;BME280;15597;50.914;6.638;2022-10-01T13:44:40;99957.19;;;19.48;56.48
28344;BME280;15597;50.914;6.638;2022-10-01T13:46:50;99961.41;;;19.50;56.93
28344;BME280;15597;50.914;6.638;2022-10-01T13:49:22;99955.28;;;19.63;57.23
28344;BME280;15597;50.914;6.638;2022-10-01T13:51:49;99959.06;;;19.71;56.28
28344;BME280;15597;50.914;6.638;2022-10-01T13:54:25;99963.44;;;19.73;56.22
28344;BME280;15597;50.914;6.638;2022-10-01T13:56:52;99967.34;;;19.80;55.82
28344;BME280;15597;50.914;6.638;2022-10-01T13:59:38;99969.47;;;19.75;55.50
28344;BME280;15597;50.914;6.638;2022-10-01T14:02:29;99978.63;;;19.70;55.51
28344;BME280;15597;50.914;6.638;2022-10-01T14:05:05;99982.00;;;19.73;55.44
28344;BME280;15597;50.914;6.638;2022-10-01T14:07:35;99992.41;;;19.76;55.25
28344;BME280;15597;50.914;6.638;2022-10-01T14:10:03;99985.19;;;19.78;54.88
28344;BME280;15597;50.914;6.638;2022-10-01T14:12:31;99978.19;;;19.77;54.80
28344;BME280;15597;50.914;6.638;2022-10-01T14:15:17;99985.59;;;19.59;55.24
28344;BME280;15597;50.914;6.638;2022-10-01T14:18:23;99992.53;;;19.74;55.21
28344;BME280;15597;50.914;6.638;2022-10-01T14:23:19;100001.63;;;19.83;54.79
28344;BME280;15597;50.914;6.638;2022-10-01T14:26:00;100006.66;;;19.88;54.75
28344;BME280;15597;50.914;6.638;2022-10-01T14:38:45;100016.44;;;20.00;52.85
28344;BME280;15597;50.914;6.638;2022-10-01T14:41:19;100025.44;;;19.97;52.33
28344;BME280;15597;50.914;6.638;2022-10-01T14:43:45;100041.91;;;20.03;52.21
28344;BME280;15597;50.914;6.638;2022-10-01T14:46:16;100031.28;;;20.03;52.29
28344;BME280;15597;50.914;6.638;2022-10-01T14:48:42;100038.81;;;20.09;51.93
28344;BME280;15597;50.914;6.638;2022-10-01T14:51:25;100044.47;;;20.04;52.06
28344;BME280;15597;50.914;6.638;2022-10-01T14:53:53;100042.34;;;20.09;51.54
28344;BME280;15597;50.914;6.638;2022-10-01T14:56:20;100046.56;;;20.12;51.85
28344;BME280;15597;50.914;6.638;2022-10-01T14:58:52;100046.56;;;20.12;51.85
28344;BME280;15597;50.914;6.638;2022-10-01T15:01:20;100050.81;;;20.14;51.61
28344;BME280;15597;50.914;6.638;2022-10-01T15:03:47;100061.34;;;20.16;51.68
28344;BME280;15597;50.914;6.638;2022-10-01T15:06:15;100062.09;;;20.18;51.22
28344;BME280;15597;50.914;6.638;2022-10-01T15:08:44;100065.50;;;20.20;51.08